createdAt,value
2022-12-29T00:01:39.714Z,95.31
2022-12-29T00:04:12.830Z,95.30
2022-12-29T00:06:42.926Z,95.42
2022-12-29T00:09:09.894Z,95.10
2022-12-29T00:11:36.269Z,95.88
2022-12-29T00:14:25.880Z,96.80
2022-12-29T00:16:52.733Z,97.71
2022-12-29T00:19:37.841Z,98.39
2022-12-29T00:22:22.809Z,99.40
2022-12-29T00:25:08.027Z,99.91
2022-12-29T00:27:53.039Z,100.00
2022-12-29T00:30:41.049Z,100.00
2022-12-29T00:33:33.942Z,100.00
2022-12-29T00:36:06.165Z,99.93
2022-12-29T00:38:55.671Z,99.81
2022-12-29T00:41:40.875Z,99.73
2022-12-29T00:44:11.076Z,100.00
2022-12-29T00:46:38.826Z,100.00
2022-12-29T00:49:24.991Z,100.00
2022-12-29T00:51:51.804Z,100.00
2022-12-29T00:54:18.809Z,100.00
2022-12-29T00:56:48.494Z,100.00
2022-12-29T00:59:15.457Z,100.00
2022-12-29T01:01:41.945Z,100.00
2022-12-29T01:04:09.349Z,99.89
2022-12-29T01:06:37.749Z,100.00
2022-12-29T01:09:23.806Z,99.64
2022-12-29T01:11:50.586Z,99.68
2022-12-29T01:14:18.094Z,99.53
2022-12-29T01:16:45.324Z,100.00
2022-12-29T01:19:12.279Z,99.96
2022-12-29T01:21:38.697Z,100.00
2022-12-29T01:24:05.364Z,99.16
2022-12-29T01:26:31.862Z,100.00
2022-12-29T01:28:58.301Z,99.62
2022-12-29T01:31:24.776Z,99.19
2022-12-29T01:33:51.339Z,99.34
2022-12-29T01:36:18.714Z,99.24
2022-12-29T01:38:45.418Z,98.88
2022-12-29T01:41:13.736Z,99.25
2022-12-29T01:43:46.811Z,98.90
2022-12-29T01:46:21.907Z,98.70
2022-12-29T01:48:49.371Z,99.33
2022-12-29T01:51:16.972Z,98.95
2022-12-29T01:53:46.153Z,99.58
2022-12-29T01:56:15.579Z,99.07
2022-12-29T01:58:45.685Z,99.30
2022-12-29T02:01:12.595Z,99.33
2022-12-29T02:03:39.247Z,99.48
2022-12-29T02:06:12.653Z,98.43
2022-12-29T02:08:39.346Z,98.48
2022-12-29T02:11:06.279Z,98.63
2022-12-29T02:13:32.886Z,98.32
2022-12-29T02:16:24.309Z,97.81
2022-12-29T02:19:09.315Z,97.35
2022-12-29T02:21:41.905Z,97.18
2022-12-29T02:24:14.249Z,96.87
2022-12-29T02:26:54.618Z,95.81
2022-12-29T02:29:36.233Z,94.96
2022-12-29T02:32:38.071Z,95.11
2022-12-29T02:35:26.776Z,94.48
2022-12-29T02:38:04.027Z,93.87
2022-12-29T02:40:44.466Z,93.20
2022-12-29T02:43:27.414Z,93.73
2022-12-29T02:46:21.907Z,93.42
2022-12-29T02:49:07.121Z,92.54
2022-12-29T02:51:39.427Z,93.17
2022-12-29T02:54:24.365Z,92.37
2022-12-29T02:56:50.864Z,91.92
2022-12-29T02:59:17.658Z,92.72
2022-12-29T03:02:19.041Z,92.85
2022-12-29T03:04:57.389Z,93.40
2022-12-29T03:08:00.991Z,92.36
2022-12-29T03:10:48.762Z,91.60
2022-12-29T03:13:55.729Z,91.66
2022-12-29T03:16:32.697Z,91.96
2022-12-29T03:19:08.175Z,91.46
2022-12-29T03:22:03.111Z,92.27
2022-12-29T03:24:35.897Z,91.63
2022-12-29T03:27:04.099Z,91.90
2022-12-29T03:29:32.521Z,92.39
2022-12-29T03:32:00.630Z,93.00
2022-12-29T03:34:27.485Z,92.84
2022-12-29T03:37:02.043Z,93.33
2022-12-29T03:39:29.635Z,93.54
2022-12-29T03:41:59.757Z,93.74
2022-12-29T03:44:43.530Z,93.60
2022-12-29T03:47:12.138Z,93.68
2022-12-29T03:49:39.032Z,94.47
2022-12-29T03:52:08.852Z,94.57
2022-12-29T03:54:35.337Z,93.82
2022-12-29T03:57:01.724Z,93.76
2022-12-29T03:59:28.173Z,93.22
2022-12-29T04:01:54.675Z,93.57
2022-12-29T04:04:21.200Z,94.01
2022-12-29T04:06:47.639Z,92.98
2022-12-29T04:09:14.259Z,92.82
2022-12-29T04:11:40.641Z,93.24
2022-12-29T04:14:07.303Z,92.48
2022-12-29T04:16:36.479Z,92.29
2022-12-29T04:19:03.334Z,92.67
2022-12-29T04:21:30.021Z,92.05
2022-12-29T04:23:56.415Z,93.26
2022-12-29T04:26:22.844Z,92.40
2022-12-29T04:28:49.379Z,92.61
2022-12-29T04:31:15.870Z,92.73
2022-12-29T04:33:42.282Z,92.84
2022-12-29T04:36:08.810Z,92.65
2022-12-29T04:38:35.200Z,92.61
2022-12-29T04:41:02.185Z,92.83
2022-12-29T04:43:29.180Z,93.08
2022-12-29T04:45:55.692Z,93.24
2022-12-29T04:48:22.160Z,93.15
2022-12-29T04:50:49.790Z,92.89
2022-12-29T04:53:16.905Z,93.55
2022-12-29T04:55:43.971Z,93.89
2022-12-29T04:58:10.428Z,94.67
2022-12-29T05:00:36.846Z,95.43
2022-12-29T05:03:03.680Z,96.06
2022-12-29T05:05:30.314Z,96.05
2022-12-29T05:07:56.755Z,96.84
2022-12-29T05:10:23.143Z,96.18
2022-12-29T05:12:49.584Z,96.38
2022-12-29T05:15:16.085Z,96.28
2022-12-29T05:17:42.472Z,96.76
2022-12-29T05:20:09.578Z,96.68
2022-12-29T05:22:36.189Z,95.57
2022-12-29T05:25:02.638Z,96.31
2022-12-29T05:27:29.267Z,96.25
2022-12-29T05:29:55.773Z,95.71
2022-12-29T05:32:22.161Z,95.68
2022-12-29T05:34:48.779Z,94.34
2022-12-29T05:37:15.225Z,93.54
2022-12-29T05:39:41.676Z,93.18
2022-12-29T05:42:08.179Z,92.77
2022-12-29T05:44:34.569Z,92.84
2022-12-29T05:47:01.016Z,92.19
2022-12-29T05:49:27.536Z,90.91
2022-12-29T05:51:54.017Z,90.92
2022-12-29T05:54:20.401Z,91.89
2022-12-29T05:56:46.894Z,90.51
2022-12-29T05:59:13.295Z,91.13
2022-12-29T06:01:39.905Z,91.10
2022-12-29T06:04:06.480Z,91.06
2022-12-29T06:06:32.936Z,91.41
2022-12-29T06:08:59.563Z,92.33
2022-12-29T06:11:26.407Z,91.25
2022-12-29T06:13:52.868Z,91.16
2022-12-29T06:16:19.471Z,90.56
2022-12-29T06:18:47.570Z,90.17
2022-12-29T06:21:14.021Z,89.65
2022-12-29T06:23:40.995Z,89.99
2022-12-29T06:26:07.515Z,89.08
2022-12-29T06:28:34.029Z,88.50
2022-12-29T06:31:00.796Z,88.32
2022-12-29T06:33:27.309Z,88.40
2022-12-29T06:35:53.708Z,88.01
2022-12-29T06:38:20.081Z,87.93
2022-12-29T06:40:46.665Z,87.80
2022-12-29T06:43:13.154Z,87.11
2022-12-29T06:45:41.127Z,87.66
2022-12-29T06:48:08.091Z,88.03
2022-12-29T06:50:34.495Z,88.84
2022-12-29T06:53:00.978Z,87.69
2022-12-29T06:55:27.446Z,87.75
2022-12-29T06:57:57.817Z,88.33
2022-12-29T07:00:25.835Z,88.22
2022-12-29T07:02:53.220Z,87.45
2022-12-29T07:05:19.879Z,88.25
2022-12-29T07:07:46.277Z,88.11
2022-12-29T07:10:12.807Z,87.80
2022-12-29T07:12:39.220Z,88.71
2022-12-29T07:15:06.115Z,88.89
2022-12-29T07:17:32.525Z,88.80
2022-12-29T07:19:58.931Z,89.11
2022-12-29T07:22:25.326Z,89.07
2022-12-29T07:24:51.842Z,89.40
2022-12-29T07:27:18.234Z,90.34
2022-12-29T07:29:44.625Z,90.27
2022-12-29T07:32:11.292Z,91.37
2022-12-29T07:34:37.832Z,91.12
2022-12-29T07:37:04.289Z,91.50
2022-12-29T07:39:30.704Z,91.38
2022-12-29T07:42:02.673Z,92.33
2022-12-29T07:44:30.851Z,92.35
2022-12-29T07:46:58.806Z,92.65
2022-12-29T07:49:26.006Z,92.67
2022-12-29T07:51:53.864Z,92.96
2022-12-29T07:54:20.325Z,92.87
2022-12-29T07:56:47.055Z,92.77
2022-12-29T07:59:13.498Z,93.19
2022-12-29T08:01:40.090Z,92.59
2022-12-29T08:04:06.719Z,93.48
2022-12-29T08:06:33.277Z,94.30
2022-12-29T08:09:07.850Z,94.64
2022-12-29T08:11:39.379Z,94.62
2022-12-29T08:14:05.918Z,94.46
2022-12-29T08:16:33.277Z,94.80
2022-12-29T08:18:59.887Z,94.57
2022-12-29T08:21:28.093Z,94.38
2022-12-29T08:23:54.503Z,94.51
2022-12-29T08:26:21.128Z,94.35
2022-12-29T08:28:47.848Z,93.78
2022-12-29T08:31:14.341Z,94.20
2022-12-29T08:33:40.873Z,94.72
2022-12-29T08:36:08.152Z,94.42
2022-12-29T08:38:34.726Z,94.34
2022-12-29T08:41:04.442Z,94.55
2022-12-29T08:43:30.866Z,95.11
2022-12-29T08:45:58.965Z,95.92
2022-12-29T08:48:26.238Z,96.89
2022-12-29T08:50:52.826Z,98.60
2022-12-29T08:53:19.337Z,100.00
2022-12-29T08:55:47.480Z,100.00
2022-12-29T08:58:15.406Z,100.00
2022-12-29T09:00:42.636Z,100.00
2022-12-29T09:03:09.362Z,100.00
2022-12-29T09:05:36.052Z,100.00
2022-12-29T09:08:02.498Z,100.00
2022-12-29T09:10:28.935Z,100.00
2022-12-29T09:12:55.320Z,100.00
2022-12-29T09:15:21.734Z,100.00
2022-12-29T09:17:51.166Z,100.00
2022-12-29T09:20:18.948Z,100.00
2022-12-29T09:22:46.434Z,100.00
2022-12-29T09:25:14.150Z,100.00
2022-12-29T09:27:41.161Z,100.00
2022-12-29T09:30:11.026Z,100.00
2022-12-29T09:32:43.599Z,100.00
2022-12-29T09:35:11.700Z,100.00
2022-12-29T09:37:38.157Z,100.00
2022-12-29T09:40:06.101Z,100.00
2022-12-29T09:42:37.666Z,100.00
2022-12-29T09:45:25.390Z,100.00
2022-12-29T09:47:51.860Z,100.00
2022-12-29T09:50:21.410Z,100.00
2022-12-29T09:52:51.761Z,100.00
2022-12-29T09:55:35.295Z,100.00
2022-12-29T09:58:07.076Z,100.00
2022-12-29T10:00:55.845Z,100.00
2022-12-29T10:03:24.628Z,100.00
2022-12-29T10:05:57.049Z,100.00
2022-12-29T10:08:40.782Z,100.00
2022-12-29T10:11:07.119Z,100.00
2022-12-29T10:13:38.825Z,100.00
2022-12-29T10:16:47.140Z,100.00
2022-12-29T10:19:20.644Z,100.00
2022-12-29T10:22:04.814Z,100.00
2022-12-29T10:24:32.774Z,100.00
2022-12-29T10:26:59.720Z,100.00
2022-12-29T10:29:34.944Z,100.00
2022-12-29T10:32:05.830Z,100.00
2022-12-29T10:34:38.976Z,100.00
2022-12-29T10:37:12.932Z,100.00
2022-12-29T10:39:45.324Z,100.00
2022-12-29T10:42:21.754Z,100.00
2022-12-29T10:44:48.308Z,100.00
2022-12-29T10:47:18.497Z,100.00
2022-12-29T10:49:46.697Z,100.00
2022-12-29T10:52:14.798Z,100.00
2022-12-29T10:55:00.518Z,100.00
2022-12-29T10:57:27.118Z,100.00
2022-12-29T10:59:53.783Z,100.00
2022-12-29T11:02:59.223Z,100.00
2022-12-29T11:05:42.185Z,100.00
2022-12-29T11:08:15.696Z,100.00
2022-12-29T11:10:43.912Z,100.00
2022-12-29T11:13:15.036Z,100.00
2022-12-29T11:15:49.699Z,100.00
2022-12-29T11:18:20.571Z,100.00
2022-12-29T11:20:47.386Z,100.00
2022-12-29T11:23:35.788Z,100.00
2022-12-29T11:26:11.284Z,100.00
2022-12-29T11:28:39.263Z,100.00
2022-12-29T11:31:07.393Z,100.00
2022-12-29T11:33:35.964Z,100.00
2022-12-29T11:36:06.920Z,100.00
2022-12-29T11:38:39.407Z,100.00
2022-12-29T11:41:06.936Z,100.00
2022-12-29T11:43:39.389Z,100.00
2022-12-29T11:46:06.262Z,99.78
2022-12-29T11:48:40.721Z,100.00
2022-12-29T11:51:08.031Z,100.00
2022-12-29T11:53:42.934Z,98.32
2022-12-29T11:56:13.327Z,97.50
2022-12-29T11:58:40.177Z,95.13
2022-12-29T12:01:25.046Z,93.65
2022-12-29T12:04:03.058Z,91.28
2022-12-29T12:06:32.205Z,93.73
2022-12-29T12:09:03.583Z,93.73
2022-12-29T12:11:39.037Z,91.60
2022-12-29T12:14:23.053Z,91.13
2022-12-29T12:16:51.431Z,90.13
2022-12-29T12:19:24.835Z,91.81
2022-12-29T12:22:00.193Z,91.05
2022-12-29T12:24:40.821Z,91.47
2022-12-29T12:27:20.384Z,92.57
2022-12-29T12:29:52.711Z,90.22
2022-12-29T12:32:44.149Z,89.46
2022-12-29T12:35:21.358Z,90.95
2022-12-29T12:38:14.244Z,90.76
2022-12-29T12:40:59.629Z,90.82
2022-12-29T12:43:56.853Z,90.20
2022-12-29T12:46:38.392Z,88.95
2022-12-29T12:49:36.006Z,88.61
2022-12-29T12:52:36.350Z,88.73
2022-12-29T12:55:21.557Z,87.14
2022-12-29T12:58:16.260Z,88.08
2022-12-29T13:00:54.858Z,89.85
2022-12-29T13:03:48.293Z,90.40
2022-12-29T13:06:23.836Z,89.55
2022-12-29T13:09:23.507Z,87.23
2022-12-29T13:11:52.605Z,87.54
2022-12-29T13:14:38.368Z,88.01
2022-12-29T13:17:09.523Z,88.43
2022-12-29T13:19:49.107Z,87.71
2022-12-29T13:22:45.015Z,88.61
2022-12-29T13:25:38.997Z,87.55
2022-12-29T13:28:23.299Z,87.73
2022-12-29T13:31:12.696Z,88.77
2022-12-29T13:33:45.748Z,87.33
2022-12-29T13:36:31.243Z,87.33
2022-12-29T13:39:06.524Z,87.66
2022-12-29T13:41:53.313Z,86.44
2022-12-29T13:44:41.286Z,87.42
2022-12-29T13:47:18.676Z,86.48
2022-12-29T13:49:45.333Z,85.39
2022-12-29T13:52:50.308Z,85.42
2022-12-29T13:55:30.717Z,83.56
2022-12-29T13:58:03.235Z,82.98
2022-12-29T14:00:46.883Z,83.88
2022-12-29T14:03:30.511Z,82.80
2022-12-29T14:06:15.648Z,83.11
2022-12-29T14:08:42.322Z,84.17
2022-12-29T14:11:11.303Z,83.31
2022-12-29T14:13:40.796Z,82.70
2022-12-29T14:16:08.200Z,81.87
2022-12-29T14:18:35.408Z,81.81
2022-12-29T14:21:06.216Z,83.17
2022-12-29T14:23:40.857Z,82.55
2022-12-29T14:26:09.076Z,81.83
2022-12-29T14:28:43.013Z,82.14
2022-12-29T14:31:15.395Z,81.48
2022-12-29T14:34:02.832Z,80.46
2022-12-29T14:36:36.820Z,82.32
2022-12-29T14:39:04.551Z,82.05
2022-12-29T14:41:36.491Z,82.62
2022-12-29T14:44:13.405Z,82.29
2022-12-29T14:46:57.268Z,82.81
2022-12-29T14:49:29.938Z,83.09
2022-12-29T14:52:07.419Z,82.36
2022-12-29T14:54:39.977Z,83.39
2022-12-29T14:57:10.168Z,83.29
2022-12-29T14:59:36.863Z,82.94
2022-12-29T15:02:06.366Z,83.29
2022-12-29T15:04:34.624Z,83.80
2022-12-29T15:07:04.259Z,83.24
2022-12-29T15:09:30.637Z,83.68
2022-12-29T15:12:02.536Z,83.67
2022-12-29T15:14:34.884Z,84.08
2022-12-29T15:17:02.151Z,84.38
2022-12-29T15:19:29.025Z,84.46
2022-12-29T15:21:56.716Z,84.95
2022-12-29T15:24:23.325Z,84.50
2022-12-29T15:26:54.725Z,84.98
2022-12-29T15:29:40.457Z,84.95
2022-12-29T15:32:16.010Z,84.39
2022-12-29T15:34:43.755Z,86.05
2022-12-29T15:37:10.373Z,85.83
2022-12-29T15:39:36.779Z,86.05
2022-12-29T15:42:48.464Z,85.75
2022-12-29T15:45:15.405Z,86.45
2022-12-29T15:47:44.173Z,86.28
2022-12-29T15:50:24.291Z,87.04
2022-12-29T15:52:51.280Z,87.50
2022-12-29T15:55:33.882Z,87.09
2022-12-29T15:58:02.619Z,86.90
2022-12-29T16:00:34.423Z,87.30
2022-12-29T16:03:02.698Z,87.26
2022-12-29T16:05:36.937Z,87.18
2022-12-29T16:08:04.473Z,87.78
2022-12-29T16:10:41.091Z,87.57
2022-12-29T16:13:27.377Z,87.54
2022-12-29T16:15:57.978Z,87.59
2022-12-29T16:18:30.400Z,86.83
2022-12-29T16:20:57.530Z,86.98
2022-12-29T16:23:27.178Z,87.95
2022-12-29T16:25:58.593Z,87.97
2022-12-29T16:28:33.000Z,88.30
2022-12-29T16:31:07.131Z,87.72
2022-12-29T16:33:40.566Z,88.33
2022-12-29T16:36:22.865Z,88.03
2022-12-29T16:38:49.327Z,88.42
2022-12-29T16:41:31.943Z,88.36
2022-12-29T16:44:21.277Z,88.62
2022-12-29T16:47:11.768Z,88.07
2022-12-29T16:49:43.402Z,87.52
2022-12-29T16:52:18.960Z,88.48
2022-12-29T16:54:51.951Z,87.99
2022-12-29T16:57:23.625Z,88.17
2022-12-29T16:59:53.795Z,89.31
2022-12-29T17:02:22.295Z,88.65
2022-12-29T17:04:50.642Z,88.58
2022-12-29T17:07:18.881Z,88.22
2022-12-29T17:09:45.327Z,88.89
2022-12-29T17:12:16.932Z,88.63
2022-12-29T17:14:43.310Z,88.69
2022-12-29T17:17:19.185Z,89.18
2022-12-29T17:19:55.023Z,89.70
2022-12-29T17:22:26.384Z,89.87
2022-12-29T17:24:54.374Z,89.86
2022-12-29T17:27:44.794Z,90.19
2022-12-29T17:30:19.919Z,90.49
2022-12-29T17:32:53.432Z,91.07
2022-12-29T17:35:21.573Z,90.22
2022-12-29T17:37:48.634Z,90.72
2022-12-29T17:40:17.878Z,91.98
2022-12-29T17:42:49.921Z,92.89
2022-12-29T17:45:18.998Z,92.55
2022-12-29T17:47:45.733Z,93.61
2022-12-29T17:50:14.022Z,94.53
2022-12-29T17:52:41.608Z,94.56
2022-12-29T17:55:15.654Z,94.92
2022-12-29T17:57:42.086Z,95.57
2022-12-29T18:00:15.226Z,95.78
2022-12-29T18:02:41.832Z,95.75
2022-12-29T18:05:28.648Z,95.70
2022-12-29T18:07:59.182Z,95.95
2022-12-29T18:10:27.674Z,95.28
2022-12-29T18:12:55.492Z,95.45
2022-12-29T18:15:24.838Z,95.16
2022-12-29T18:18:03.122Z,95.71
2022-12-29T18:20:32.429Z,95.07
2022-12-29T18:22:59.064Z,94.70
2022-12-29T18:25:44.258Z,93.88
2022-12-29T18:28:10.894Z,93.74
2022-12-29T18:30:37.496Z,93.66
2022-12-29T18:33:04.181Z,94.33
2022-12-29T18:35:34.238Z,94.05
2022-12-29T18:38:00.673Z,94.93
2022-12-29T18:40:27.139Z,94.98
2022-12-29T18:42:53.550Z,94.54
2022-12-29T18:45:22.404Z,95.17
2022-12-29T18:47:49.190Z,94.56
2022-12-29T18:50:16.126Z,94.86
2022-12-29T18:52:42.577Z,95.59
2022-12-29T18:55:14.090Z,95.43
2022-12-29T18:57:40.719Z,95.21
2022-12-29T19:00:07.766Z,95.69
2022-12-29T19:02:34.163Z,95.41
2022-12-29T19:05:06.752Z,94.75
2022-12-29T19:07:34.270Z,94.83
2022-12-29T19:10:00.780Z,94.75
2022-12-29T19:12:28.562Z,95.75
2022-12-29T19:14:55.178Z,94.52
2022-12-29T19:17:21.696Z,94.59
2022-12-29T19:19:48.099Z,94.98
2022-12-29T19:22:14.643Z,95.23
2022-12-29T19:24:41.148Z,95.09
2022-12-29T19:27:07.572Z,95.33
2022-12-29T19:29:34.004Z,94.72
2022-12-29T19:32:00.491Z,94.19
2022-12-29T19:34:26.943Z,94.71
2022-12-29T19:36:53.681Z,95.26
2022-12-29T19:39:20.843Z,94.70
2022-12-29T19:41:47.236Z,95.49
2022-12-29T19:44:13.841Z,95.44
2022-12-29T19:46:40.407Z,94.43
2022-12-29T19:49:06.870Z,95.07
2022-12-29T19:51:33.373Z,95.84
2022-12-29T19:53:59.862Z,95.39
2022-12-29T19:56:26.375Z,94.86
2022-12-29T19:58:52.897Z,94.71
2022-12-29T20:01:22.043Z,94.74
2022-12-29T20:03:49.407Z,95.39
2022-12-29T20:06:16.395Z,94.79
2022-12-29T20:08:43.064Z,95.19
2022-12-29T20:11:13.030Z,95.71
2022-12-29T20:13:40.299Z,95.98
2022-12-29T20:16:09.499Z,95.67
2022-12-29T20:18:36.189Z,96.10
2022-12-29T20:21:07.826Z,95.76
2022-12-29T20:23:35.169Z,96.36
2022-12-29T20:26:01.705Z,95.92
2022-12-29T20:28:29.176Z,95.09
2022-12-29T20:31:07.227Z,95.67
2022-12-29T20:33:35.190Z,94.93
2022-12-29T20:36:15.313Z,95.90
2022-12-29T20:38:42.503Z,94.77
2022-12-29T20:41:09.298Z,94.44
2022-12-29T20:43:35.745Z,95.08
2022-12-29T20:46:02.272Z,94.48
2022-12-29T20:48:30.295Z,94.76
2022-12-29T20:51:00.456Z,94.79
2022-12-29T20:53:28.029Z,94.33
2022-12-29T20:55:55.078Z,94.23
2022-12-29T20:58:23.935Z,94.26
2022-12-29T21:00:50.908Z,93.96
2022-12-29T21:03:17.507Z,94.54
2022-12-29T21:05:44.450Z,94.65
2022-12-29T21:08:11.666Z,94.08
2022-12-29T21:10:38.230Z,95.02
2022-12-29T21:13:04.661Z,94.33
2022-12-29T21:15:34.118Z,95.02
2022-12-29T21:18:00.552Z,94.25
2022-12-29T21:20:31.614Z,94.76
2022-12-29T21:23:00.163Z,94.95
2022-12-29T21:25:36.699Z,94.62
2022-12-29T21:28:04.780Z,95.84
2022-12-29T21:30:31.258Z,95.22
2022-12-29T21:33:01.513Z,95.30
2022-12-29T21:35:28.137Z,95.10
2022-12-29T21:37:54.569Z,94.21
2022-12-29T21:40:23.795Z,95.21
2022-12-29T21:42:50.238Z,95.28
2022-12-29T21:45:25.639Z,94.39
2022-12-29T21:48:16.740Z,95.11
2022-12-29T21:51:04.298Z,95.18
2022-12-29T21:53:42.313Z,94.56
2022-12-29T21:56:08.683Z,94.75
2022-12-29T21:58:55.175Z,94.33
2022-12-29T22:01:40.809Z,93.62
2022-12-29T22:04:25.961Z,93.80
2022-12-29T22:07:11.001Z,94.09
2022-12-29T22:09:55.762Z,93.88
2022-12-29T22:12:40.429Z,94.47
2022-12-29T22:15:07.579Z,93.92
2022-12-29T22:17:37.624Z,94.27
2022-12-29T22:20:05.248Z,93.91
2022-12-29T22:22:31.979Z,95.39
2022-12-29T22:24:58.406Z,95.39
2022-12-29T22:27:25.111Z,94.50
2022-12-29T22:29:51.518Z,94.32
2022-12-29T22:32:17.983Z,94.08
2022-12-29T22:34:44.362Z,94.14
2022-12-29T22:37:10.904Z,93.86
2022-12-29T22:39:37.295Z,94.05
2022-12-29T22:42:06.741Z,93.74
2022-12-29T22:44:36.262Z,94.37
2022-12-29T22:47:03.188Z,95.47
2022-12-29T22:49:29.585Z,94.62
2022-12-29T22:51:56.080Z,94.14
2022-12-29T22:54:22.523Z,94.93
2022-12-29T22:56:48.963Z,94.04
2022-12-29T22:59:15.952Z,94.54
2022-12-29T23:01:43.383Z,94.55
2022-12-29T23:04:55.667Z,95.29
2022-12-29T23:06:56.433Z,95.29
2022-12-29T23:09:23.241Z,94.99
2022-12-29T23:11:50.466Z,94.98
2022-12-29T23:14:17.527Z,94.74
2022-12-29T23:16:44.403Z,94.32
2022-12-29T23:19:12.355Z,95.36
2022-12-29T23:21:38.869Z,96.25
2022-12-29T23:24:05.572Z,96.09
2022-12-29T23:26:35.757Z,95.50
2022-12-29T23:29:05.178Z,95.44
2022-12-29T23:31:32.282Z,96.06
2022-12-29T23:34:00.920Z,95.57
2022-12-29T23:36:27.984Z,95.28
2022-12-29T23:38:54.815Z,94.69
2022-12-29T23:41:21.521Z,95.78
2022-12-29T23:43:48.338Z,95.18
2022-12-29T23:46:17.173Z,95.65
2022-12-29T23:48:46.814Z,95.42
2022-12-29T23:51:13.819Z,95.22
2022-12-29T23:53:41.872Z,95.50
2022-12-29T23:56:11.706Z,94.58
2022-12-29T23:58:38.387Z,94.57
